createdAt,value
2022-12-19T00:02:42.351Z,2.45
2022-12-19T00:05:45.076Z,2.63
2022-12-19T00:08:48.703Z,3.65
2022-12-19T00:11:50.450Z,1.88
2022-12-19T00:14:51.940Z,2.30
2022-12-19T00:17:53.552Z,1.85
2022-12-19T00:21:00.303Z,0.75
2022-12-19T00:24:03.304Z,1.42
2022-12-19T00:27:06.710Z,1.83
2022-12-19T00:30:08.896Z,2.00
2022-12-19T00:33:10.496Z,1.13
2022-12-19T00:36:23.198Z,1.13
2022-12-19T00:39:24.819Z,1.23
2022-12-19T00:42:26.367Z,1.20
2022-12-19T00:45:28.012Z,1.20
2022-12-19T00:48:32.265Z,1.00
2022-12-19T00:51:36.571Z,1.00
2022-12-19T00:54:38.194Z,1.00
2022-12-19T00:57:39.847Z,0.90
2022-12-19T01:00:41.512Z,1.77
2022-12-19T01:04:04.462Z,1.25
2022-12-19T01:07:08.268Z,1.00
2022-12-19T01:10:10.027Z,1.00
2022-12-19T01:13:11.537Z,0.70
2022-12-19T01:16:13.807Z,1.65
2022-12-19T01:19:15.375Z,0.90
2022-12-19T01:22:16.929Z,1.40
2022-12-19T01:25:18.896Z,1.63
2022-12-19T01:28:20.860Z,1.38
2022-12-19T01:31:23.808Z,1.90
2022-12-19T01:34:25.398Z,1.77
2022-12-19T01:37:26.982Z,2.10
2022-12-19T01:40:28.532Z,2.55
2022-12-19T01:43:33.594Z,2.50
2022-12-19T01:46:45.197Z,2.53
2022-12-19T01:49:46.856Z,2.85
2022-12-19T01:52:48.699Z,4.43
2022-12-19T01:55:50.535Z,3.35
2022-12-19T01:59:05.883Z,2.20
2022-12-19T02:02:13.293Z,2.72
2022-12-19T02:05:15.124Z,1.45
2022-12-19T02:08:17.298Z,2.58
2022-12-19T02:11:18.949Z,1.95
2022-12-19T02:14:20.864Z,2.20
2022-12-19T02:18:01.516Z,1.85
2022-12-19T02:21:24.152Z,2.70
2022-12-19T02:24:45.495Z,3.33
2022-12-19T02:28:15.549Z,2.20
2022-12-19T02:31:34.596Z,3.78
2022-12-19T02:34:45.234Z,3.53
2022-12-19T02:38:01.159Z,2.25
2022-12-19T02:41:23.009Z,5.13
2022-12-19T02:44:30.510Z,3.83
2022-12-19T02:47:34.440Z,3.42
2022-12-19T02:50:49.905Z,2.95
2022-12-19T02:53:52.108Z,2.55
2022-12-19T02:57:08.570Z,1.90
2022-12-19T03:00:19.924Z,2.58
2022-12-19T03:03:47.317Z,1.85
2022-12-19T03:06:55.945Z,3.42
2022-12-19T03:10:17.902Z,1.45
2022-12-19T03:13:41.470Z,1.63
2022-12-19T03:16:43.372Z,3.08
2022-12-19T03:19:45.999Z,5.13
2022-12-19T03:22:47.665Z,1.88
2022-12-19T03:25:54.966Z,1.98
2022-12-19T03:29:14.075Z,2.40
2022-12-19T03:32:18.001Z,2.65
2022-12-19T03:35:26.653Z,2.15
2022-12-19T03:38:28.910Z,2.72
2022-12-19T03:41:50.361Z,4.70
2022-12-19T03:44:55.692Z,2.33
2022-12-19T03:48:01.128Z,3.45
2022-12-19T03:51:21.102Z,2.47
2022-12-19T03:54:27.617Z,1.92
2022-12-19T03:57:36.573Z,2.55
2022-12-19T04:00:41.676Z,2.83
2022-12-19T04:03:44.099Z,2.10
2022-12-19T04:06:45.860Z,2.00
2022-12-19T04:09:48.961Z,2.20
2022-12-19T04:13:01.238Z,2.30
2022-12-19T04:16:08.824Z,3.50
2022-12-19T04:19:41.102Z,2.35
2022-12-19T04:22:52.712Z,3.88
2022-12-19T04:26:00.485Z,3.13
2022-12-19T04:29:05.080Z,4.45
2022-12-19T04:32:08.319Z,4.22
2022-12-19T04:35:09.887Z,3.90
2022-12-19T04:38:11.626Z,5.93
2022-12-19T04:41:13.248Z,2.45
2022-12-19T04:44:14.809Z,2.20
2022-12-19T04:47:16.378Z,2.92
2022-12-19T04:50:17.927Z,4.20
2022-12-19T04:53:19.707Z,2.90
2022-12-19T04:56:21.301Z,3.00
2022-12-19T04:59:22.855Z,2.03
2022-12-19T05:02:24.815Z,2.75
2022-12-19T05:05:26.483Z,2.28
2022-12-19T05:08:27.988Z,1.20
2022-12-19T05:11:29.597Z,1.38
2022-12-19T05:14:31.141Z,1.30
2022-12-19T05:17:33.030Z,1.20
2022-12-19T05:20:37.044Z,1.98
2022-12-19T05:23:38.601Z,2.45
2022-12-19T05:26:40.137Z,2.10
2022-12-19T05:29:41.701Z,1.27
2022-12-19T05:32:43.254Z,1.40
2022-12-19T05:35:44.812Z,0.77
2022-12-19T05:38:46.325Z,1.27
2022-12-19T05:41:49.287Z,1.20
2022-12-19T05:44:51.025Z,1.38
2022-12-19T05:47:52.565Z,2.78
2022-12-19T05:50:54.119Z,1.50
2022-12-19T05:53:55.638Z,1.65
2022-12-19T05:56:57.211Z,1.05
2022-12-19T05:59:59.081Z,1.15
2022-12-19T06:03:00.787Z,1.00
2022-12-19T06:06:04.968Z,1.00
2022-12-19T06:09:06.560Z,1.08
2022-12-19T06:12:08.228Z,0.90
2022-12-19T06:15:10.388Z,1.50
2022-12-19T06:18:11.980Z,1.42
2022-12-19T06:21:16.665Z,1.77
2022-12-19T06:24:18.225Z,1.80
2022-12-19T06:27:19.784Z,2.55
2022-12-19T06:30:21.341Z,2.33
2022-12-19T06:33:23.506Z,1.95
2022-12-19T06:36:27.154Z,1.42
2022-12-19T06:39:28.717Z,1.23
2022-12-19T06:42:30.293Z,1.00
2022-12-19T06:45:31.963Z,1.00
2022-12-19T06:48:34.315Z,1.00
2022-12-19T06:51:35.945Z,1.77
2022-12-19T06:54:37.570Z,0.65
2022-12-19T06:57:45.934Z,0.90
2022-12-19T07:00:48.101Z,0.68
2022-12-19T07:03:50.129Z,0.80
2022-12-19T07:06:51.761Z,1.02
2022-12-19T07:09:53.353Z,0.82
2022-12-19T07:12:54.901Z,0.77
2022-12-19T07:16:02.843Z,1.20
2022-12-19T07:19:05.321Z,1.20
2022-12-19T07:22:07.561Z,1.47
2022-12-19T07:25:09.829Z,1.10
2022-12-19T07:28:11.804Z,0.77
2022-12-19T07:31:13.395Z,1.08
2022-12-19T07:34:14.998Z,1.30
2022-12-19T07:37:16.540Z,1.08
2022-12-19T07:40:18.462Z,0.77
2022-12-19T07:43:20.078Z,1.00
2022-12-19T07:46:22.118Z,1.27
2022-12-19T07:49:23.854Z,1.88
2022-12-19T07:52:26.049Z,1.40
2022-12-19T07:55:28.323Z,1.38
2022-12-19T07:58:30.705Z,0.70
2022-12-19T08:01:32.325Z,0.73
2022-12-19T08:04:34.007Z,0.80
2022-12-19T08:07:35.626Z,1.42
2022-12-19T08:10:37.205Z,0.82
2022-12-19T08:13:44.776Z,1.67
2022-12-19T08:17:18.796Z,0.70
2022-12-19T08:20:13.675Z,1.02
2022-12-19T08:23:15.256Z,0.52
2022-12-19T08:26:24.913Z,1.00
2022-12-19T08:29:27.104Z,0.73
2022-12-19T08:32:28.630Z,0.80
2022-12-19T08:35:30.232Z,0.93
2022-12-19T08:38:32.000Z,0.50
2022-12-19T08:41:33.859Z,0.52
2022-12-19T08:44:35.465Z,0.60
2022-12-19T08:47:37.044Z,0.73
2022-12-19T08:50:38.560Z,0.70
2022-12-19T08:53:41.872Z,0.52
2022-12-19T08:56:46.720Z,0.70
2022-12-19T08:59:48.535Z,0.85
2022-12-19T09:02:51.704Z,0.32
2022-12-19T09:06:08.214Z,0.70
2022-12-19T09:09:11.994Z,0.50
2022-12-19T09:12:15.097Z,0.55
2022-12-19T09:15:16.641Z,0.30
2022-12-19T09:18:18.184Z,0.60
2022-12-19T09:21:23.845Z,0.77
2022-12-19T09:24:25.668Z,0.50
2022-12-19T09:27:27.272Z,0.75
2022-12-19T09:30:29.073Z,1.33
2022-12-19T09:33:35.535Z,0.40
2022-12-19T09:36:41.103Z,0.43
2022-12-19T09:39:42.629Z,0.60
2022-12-19T09:42:50.154Z,0.30
2022-12-19T09:45:54.848Z,0.28
2022-12-19T09:48:57.902Z,0.40
2022-12-19T09:52:06.138Z,0.55
2022-12-19T09:55:28.359Z,0.50
2022-12-19T09:58:43.271Z,0.47
2022-12-19T10:01:58.110Z,0.38
2022-12-19T10:06:09.235Z,0.40
2022-12-19T10:09:03.095Z,0.30
2022-12-19T10:12:45.226Z,0.30
2022-12-19T10:16:39.810Z,0.30
2022-12-19T10:20:09.760Z,0.50
2022-12-19T10:23:17.049Z,0.63
2022-12-19T10:26:23.483Z,0.32
2022-12-19T10:30:01.306Z,0.30
2022-12-19T10:33:31.871Z,0.75
2022-12-19T10:40:32.428Z,0.40
2022-12-19T10:43:59.213Z,0.40
2022-12-19T10:47:00.818Z,0.20
2022-12-19T10:50:09.665Z,0.20
2022-12-19T10:53:13.266Z,0.50
2022-12-19T10:56:34.990Z,0.40
2022-12-19T10:59:38.935Z,0.30
2022-12-19T11:02:47.672Z,0.32
2022-12-19T11:05:58.499Z,0.50
2022-12-19T11:09:44.581Z,0.40
2022-12-19T11:16:40.549Z,0.28
2022-12-19T11:22:30.457Z,0.32
2022-12-19T11:28:45.059Z,0.30
2022-12-19T11:29:54.357Z,0.10
2022-12-19T11:30:34.379Z,0.22
2022-12-19T11:33:46.006Z,0.50
2022-12-19T11:37:09.791Z,0.20
2022-12-19T11:40:15.876Z,0.20
2022-12-19T11:43:45.387Z,0.30
2022-12-19T11:47:09.710Z,0.25
2022-12-19T11:50:21.786Z,0.30
2022-12-19T11:54:02.411Z,0.25
2022-12-19T11:57:04.091Z,0.20
2022-12-19T12:00:06.420Z,0.22
2022-12-19T12:03:13.707Z,0.40
2022-12-19T12:06:19.024Z,0.50
2022-12-19T12:14:12.363Z,0.20
2022-12-19T12:16:37.162Z,0.25
2022-12-19T12:31:14.155Z,0.20
2022-12-19T12:31:26.956Z,0.35
2022-12-19T12:31:42.236Z,0.30
2022-12-19T12:31:53.908Z,0.30
2022-12-19T12:36:54.506Z,0.30
2022-12-19T12:38:47.437Z,0.30
2022-12-19T12:42:37.184Z,0.40
2022-12-19T12:45:41.000Z,0.22
2022-12-19T12:48:45.507Z,0.40
2022-12-19T12:51:47.469Z,0.60
2022-12-19T12:54:50.431Z,0.30
2022-12-19T12:57:52.254Z,0.20
2022-12-19T13:01:17.600Z,0.55
2022-12-19T13:04:27.494Z,0.30
2022-12-19T13:07:40.535Z,0.30
2022-12-19T13:10:53.942Z,0.22
2022-12-19T13:13:58.168Z,0.28
2022-12-19T13:17:00.741Z,0.30
2022-12-19T13:20:05.029Z,0.30
2022-12-19T13:23:20.901Z,0.98
2022-12-19T13:26:46.731Z,0.47
2022-12-19T13:30:03.874Z,0.43
2022-12-19T13:33:07.653Z,0.40
2022-12-19T13:39:52.444Z,0.30
2022-12-19T13:40:34.264Z,0.60
2022-12-19T13:43:47.657Z,0.50
2022-12-19T13:46:49.882Z,0.80
2022-12-19T13:49:52.384Z,0.73
2022-12-19T13:52:54.196Z,0.70
2022-12-19T13:56:11.639Z,0.60
2022-12-19T13:59:13.511Z,0.50
2022-12-19T14:02:22.648Z,0.40
2022-12-19T14:06:16.875Z,0.60
2022-12-19T14:11:26.284Z,0.32
2022-12-19T14:13:59.066Z,0.40
2022-12-19T14:16:39.824Z,0.40
2022-12-19T14:19:53.158Z,0.47
2022-12-19T14:23:09.553Z,0.60
2022-12-19T14:28:24.084Z,0.43
2022-12-19T14:30:27.605Z,0.30
2022-12-19T14:33:54.194Z,0.30
2022-12-19T14:36:52.184Z,0.30
2022-12-19T14:39:59.181Z,0.30
2022-12-19T14:43:56.815Z,0.30
2022-12-19T14:54:08.206Z,0.22
2022-12-19T14:54:25.678Z,0.22
2022-12-19T14:56:03.759Z,0.40
2022-12-19T14:58:50.955Z,0.30
2022-12-19T15:01:22.945Z,0.52
2022-12-19T15:04:51.788Z,0.25
2022-12-19T15:07:55.611Z,0.20
2022-12-19T15:11:44.536Z,0.70
2022-12-19T15:14:58.994Z,0.43
2022-12-19T15:18:04.382Z,0.22
2022-12-19T15:21:09.908Z,0.40
2022-12-19T15:24:11.446Z,0.28
2022-12-19T15:27:15.698Z,0.28
2022-12-19T15:30:20.485Z,0.30
2022-12-19T15:33:22.289Z,0.20
2022-12-19T15:36:24.047Z,0.20
2022-12-19T15:39:29.411Z,0.30
2022-12-19T15:42:31.420Z,0.40
2022-12-19T15:45:33.475Z,0.32
2022-12-19T15:48:39.402Z,0.20
2022-12-19T15:51:41.301Z,0.22
2022-12-19T15:54:51.120Z,0.30
2022-12-19T15:57:59.717Z,0.43
2022-12-19T16:01:03.762Z,0.30
2022-12-19T16:04:13.255Z,0.30
2022-12-19T16:07:23.487Z,0.40
2022-12-19T16:10:26.023Z,0.32
2022-12-19T16:13:32.271Z,0.20
2022-12-19T16:16:34.466Z,0.35
2022-12-19T16:19:36.064Z,0.47
2022-12-19T16:22:38.848Z,0.32
2022-12-19T16:25:43.607Z,0.38
2022-12-19T16:28:45.163Z,0.28
2022-12-19T16:31:46.777Z,0.30
2022-12-19T16:34:48.445Z,0.20
2022-12-19T16:37:50.363Z,0.60
2022-12-19T16:40:52.759Z,0.32
2022-12-19T16:43:54.532Z,0.30
2022-12-19T16:46:56.105Z,0.40
2022-12-19T16:49:57.677Z,0.20
2022-12-19T16:52:59.245Z,0.20
2022-12-19T16:56:01.410Z,0.22
2022-12-19T16:59:08.492Z,0.28
2022-12-19T17:02:58.644Z,0.30
2022-12-19T17:06:01.085Z,0.55
2022-12-19T17:09:02.693Z,0.30
2022-12-19T17:12:04.434Z,0.17
2022-12-19T17:15:17.990Z,0.40
2022-12-19T17:18:29.323Z,0.40
2022-12-19T17:21:30.890Z,0.30
2022-12-19T17:24:32.447Z,0.60
2022-12-19T17:27:33.996Z,0.40
2022-12-19T17:30:36.509Z,0.32
2022-12-19T17:33:40.462Z,0.32
2022-12-19T17:36:42.297Z,0.30
2022-12-19T17:39:43.868Z,0.20
2022-12-19T17:42:45.924Z,0.30
2022-12-19T17:45:47.636Z,0.30
2022-12-19T17:48:52.158Z,0.20
2022-12-19T17:51:54.496Z,0.20
2022-12-19T17:54:56.018Z,0.32
2022-12-19T17:57:58.146Z,0.30
2022-12-19T18:00:59.732Z,0.28
2022-12-19T18:04:01.630Z,0.25
2022-12-19T18:07:03.481Z,0.32
2022-12-19T18:10:14.364Z,0.20
2022-12-19T18:13:16.172Z,0.30
2022-12-19T18:16:26.519Z,0.28
2022-12-19T18:19:31.589Z,0.40
2022-12-19T18:22:33.179Z,0.30
2022-12-19T18:25:35.847Z,0.28
2022-12-19T18:28:38.577Z,0.30
2022-12-19T18:31:46.425Z,0.30
2022-12-19T18:34:51.640Z,0.30
2022-12-19T18:37:53.217Z,0.20
2022-12-19T18:40:54.747Z,0.30
2022-12-19T18:43:56.372Z,0.30
2022-12-19T18:46:58.955Z,0.30
2022-12-19T18:50:00.560Z,0.20
2022-12-19T18:53:02.117Z,0.30
2022-12-19T18:56:06.000Z,0.68
2022-12-19T18:59:07.609Z,0.20
2022-12-19T19:02:26.789Z,0.30
2022-12-19T19:05:34.258Z,0.30
2022-12-19T19:08:35.906Z,0.30
2022-12-19T19:11:37.392Z,0.20
2022-12-19T19:14:39.395Z,0.20
2022-12-19T19:17:42.288Z,0.20
2022-12-19T19:20:45.891Z,0.30
2022-12-19T19:23:52.517Z,0.40
2022-12-19T19:26:54.087Z,0.50
2022-12-19T19:29:55.610Z,0.40
2022-12-19T19:33:02.072Z,0.35
2022-12-19T19:36:12.325Z,0.50
2022-12-19T19:39:14.386Z,1.77
2022-12-19T19:42:16.255Z,0.32
2022-12-19T19:45:17.854Z,0.70
2022-12-19T19:48:19.430Z,0.30
2022-12-19T19:51:21.272Z,0.30
2022-12-19T19:54:22.874Z,0.35
2022-12-19T19:57:24.659Z,0.25
2022-12-19T20:00:26.218Z,0.47
2022-12-19T20:03:27.904Z,0.30
2022-12-19T20:06:29.773Z,0.30
2022-12-19T20:09:31.543Z,0.30
2022-12-19T20:12:33.647Z,0.40
2022-12-19T20:15:35.206Z,0.40
2022-12-19T20:18:40.077Z,0.22
2022-12-19T20:21:42.761Z,0.30
2022-12-19T20:24:44.345Z,0.30
2022-12-19T20:27:46.143Z,0.35
2022-12-19T20:30:47.754Z,0.20
2022-12-19T20:33:50.602Z,0.30
2022-12-19T20:36:52.319Z,0.20
2022-12-19T20:39:53.866Z,0.30
2022-12-19T20:42:55.408Z,0.30
2022-12-19T20:46:08.654Z,0.30
2022-12-19T20:49:11.624Z,0.20
2022-12-19T20:52:13.170Z,0.68
2022-12-19T20:55:14.850Z,0.40
2022-12-19T20:58:16.435Z,0.40
2022-12-19T21:01:20.863Z,0.20
2022-12-19T21:04:22.775Z,0.20
2022-12-19T21:07:24.547Z,0.30
2022-12-19T21:10:26.136Z,0.20
2022-12-19T21:13:28.324Z,0.20
2022-12-19T21:16:30.128Z,0.20
2022-12-19T21:19:31.770Z,0.20
2022-12-19T21:22:33.399Z,0.40
2022-12-19T21:25:34.919Z,0.30
2022-12-19T21:28:37.769Z,0.45
2022-12-19T21:31:39.480Z,0.40
2022-12-19T21:34:41.047Z,0.30
2022-12-19T21:37:44.199Z,0.40
2022-12-19T21:40:45.811Z,0.40
2022-12-19T21:43:49.246Z,0.30
2022-12-19T21:46:50.925Z,0.30
2022-12-19T21:49:52.536Z,0.30
2022-12-19T21:52:55.950Z,0.30
2022-12-19T21:56:07.237Z,0.30
2022-12-19T21:59:14.450Z,0.30
2022-12-19T22:02:16.386Z,0.30
2022-12-19T22:05:18.155Z,0.20
2022-12-19T22:08:19.701Z,0.20
2022-12-19T22:11:21.733Z,0.45
2022-12-19T22:14:23.508Z,0.20
2022-12-19T22:17:26.986Z,0.20
2022-12-19T22:20:28.511Z,0.30
2022-12-19T22:23:30.476Z,0.20
2022-12-19T22:26:32.913Z,0.25
2022-12-19T22:29:36.663Z,0.25
2022-12-19T22:32:38.353Z,0.35
2022-12-19T22:35:40.447Z,0.22
2022-12-19T22:38:46.591Z,0.25
2022-12-19T22:41:48.624Z,0.30
2022-12-19T22:44:50.169Z,0.30
2022-12-19T22:47:51.795Z,0.57
2022-12-19T22:50:53.339Z,0.30
2022-12-19T22:53:55.957Z,0.20
2022-12-19T22:56:57.491Z,0.40
2022-12-19T22:59:59.025Z,0.30
2022-12-19T23:03:01.279Z,0.40
2022-12-19T23:06:03.064Z,0.20
2022-12-19T23:09:07.456Z,0.35
2022-12-19T23:12:09.046Z,0.30
2022-12-19T23:15:10.832Z,0.43
2022-12-19T23:18:12.634Z,0.47
2022-12-19T23:21:22.871Z,0.30
2022-12-19T23:24:24.529Z,0.25
2022-12-19T23:27:27.859Z,0.60
2022-12-19T23:30:29.379Z,0.63
2022-12-19T23:33:32.817Z,0.25
2022-12-19T23:39:55.951Z,0.30
2022-12-19T23:42:57.502Z,0.45
2022-12-19T23:45:59.211Z,0.20
2022-12-19T23:49:00.836Z,0.25
2022-12-19T23:52:02.460Z,0.28
2022-12-19T23:55:04.401Z,0.20
2022-12-19T23:58:13.669Z,0.20
